Huntsville, TX (77320)

1:28 PM CST on February 13, 2016 (GMT -0600)
Huntsville Municipal | | Change Station
CLOSE
Current Station
Airport
Location: Huntsville,
Elevation: 364 ft
Nearby Weather Stations

Elev 364 ft 30.74 °N, 95.59 °W | Updated 35 minutes ago

Mostly Cloudy
Mostly Cloudy
68 °F
Feels Like 68 °F
N
6
Wind Variable Wind from ESE

Today
High -- | Low -- °F
--% Chance of Precip.
Yesterday
High -- | Low -- °F
Precip. -- in
Pressure 30.31 in
Visibility 10.0 miles
Clouds Scattered Clouds 3200 ft
Mostly Cloudy 4900 ft
Dew Point 45 °F
Humidity 43%
Rainfall 0.00 in
Snow Depth Not available.
7:05 AM 6:08 PM
Waxing Crescent, 33% visible
METAR KUTS 131853Z AUTO 11005KT 10SM SCT032 BKN049 20/07 A3031 RMK AO2 SLP262 T02000072
Pressure 30.31 in
Visibility 10.0 miles
Clouds Scattered Clouds 3200 ft
Mostly Cloudy 4900 ft
Dew Point 45 °F
Humidity 43%
Rainfall 0.00 in
Snow Depth Not available.
7:05 AM 6:08 PM
Waxing Crescent, 33% visible
METAR KUTS 131853Z AUTO 11005KT 10SM SCT032 BKN049 20/07 A3031 RMK AO2 SLP262 T02000072

10-Day Weather Forecast

Almanac

Astronomy

Feb. 13, 2016 Rise Set
Actual Time
Civil Twilight
Nautical Twilight
Astronomical Twilight
Moon
Length of Visible Light
Length of Day
Tomorrow will be .
, % of the Moon is Illuminated

Today's Extremes

State Highs State Lows

Community

WunderPhotos

Upload Photos

1,892,642 photos uploaded!

WunderBlog® & News

Nearby

Air Quality

  Air Quality AQ Index Pollutant
Not available.

Snow Depth

Station Depth Elevation

Earthquake Activity

City Distance Mag. Time & Date
Minimum magnitude displayed is 2.5.

Coastal Water Temperatures

Place Temperature

Stations

Nearby Weather Stations

Station Location Temp. Windchill Dew Point Humidity Wind Precip. Elev Updated Type
                   

Watches & Warnings

There are currently no watches in effect.